createdAt,value
2022-10-10T00:01:15.601Z,4.30
2022-10-10T00:03:44.233Z,4.20
2022-10-10T00:06:12.957Z,4.10
2022-10-10T00:08:42.671Z,4.00
2022-10-10T00:11:11.751Z,4.00
2022-10-10T00:13:40.477Z,3.90
2022-10-10T00:16:08.934Z,4.00
2022-10-10T00:18:37.287Z,4.00
2022-10-10T00:21:05.778Z,4.00
2022-10-10T00:23:34.031Z,4.00
2022-10-10T00:26:08.618Z,4.10
2022-10-10T00:28:38.826Z,4.00
2022-10-10T00:31:08.470Z,4.00
2022-10-10T00:33:38.438Z,4.10
2022-10-10T00:36:07.862Z,4.10
2022-10-10T00:38:36.420Z,4.00
2022-10-10T00:41:06.298Z,4.00
2022-10-10T00:43:34.999Z,4.00
2022-10-10T00:46:03.075Z,4.00
2022-10-10T00:48:33.867Z,4.00
2022-10-10T00:51:06.157Z,4.00
2022-10-10T00:53:37.675Z,3.90
2022-10-10T00:56:08.722Z,3.90
2022-10-10T00:58:38.910Z,3.90
2022-10-10T01:01:07.628Z,3.90
2022-10-10T01:03:35.802Z,3.80
2022-10-10T01:06:04.295Z,3.90
2022-10-10T01:08:32.739Z,3.80
2022-10-10T01:11:15.983Z,3.70
2022-10-10T01:13:53.452Z,3.70
2022-10-10T01:16:26.910Z,3.70
2022-10-10T01:19:01.193Z,3.70
2022-10-10T01:21:35.937Z,3.70
2022-10-10T01:24:26.616Z,3.80
2022-10-10T01:27:31.133Z,3.70
2022-10-10T01:30:05.228Z,3.70
2022-10-10T01:32:39.971Z,3.60
2022-10-10T01:35:20.385Z,3.70
2022-10-10T01:37:55.291Z,3.70
2022-10-10T01:40:29.873Z,3.60
2022-10-10T01:43:00.530Z,3.60
2022-10-10T01:45:31.686Z,3.70
2022-10-10T01:48:03.444Z,3.70
2022-10-10T01:50:35.161Z,3.70
2022-10-10T01:53:11.436Z,3.70
2022-10-10T01:55:52.266Z,3.70
2022-10-10T01:58:34.589Z,3.70
2022-10-10T02:01:15.163Z,3.70
2022-10-10T02:03:48.789Z,3.60
2022-10-10T02:06:25.891Z,3.50
2022-10-10T02:08:59.979Z,3.60
2022-10-10T02:11:30.007Z,3.50
2022-10-10T02:14:03.183Z,3.50
2022-10-10T02:16:38.663Z,3.50
2022-10-10T02:19:10.051Z,3.50
2022-10-10T02:21:40.120Z,3.50
2022-10-10T02:24:11.265Z,3.40
2022-10-10T02:26:41.061Z,3.40
2022-10-10T02:29:12.572Z,3.40
2022-10-10T02:31:47.033Z,3.40
2022-10-10T02:34:18.243Z,3.40
2022-10-10T02:36:50.607Z,3.30
2022-10-10T02:39:22.589Z,3.20
2022-10-10T02:41:52.982Z,3.10
2022-10-10T02:44:22.427Z,3.00
2022-10-10T02:46:52.472Z,2.90
2022-10-10T02:49:25.330Z,2.90
2022-10-10T02:51:53.552Z,2.90
2022-10-10T02:54:21.701Z,2.90
2022-10-10T02:56:49.865Z,3.00
2022-10-10T02:59:18.008Z,3.10
2022-10-10T03:01:46.582Z,3.20
2022-10-10T03:04:16.429Z,3.30
2022-10-10T03:06:44.827Z,3.40
2022-10-10T03:09:12.960Z,3.40
2022-10-10T03:11:41.268Z,3.50
2022-10-10T03:14:09.467Z,3.50
2022-10-10T03:16:37.740Z,3.50
2022-10-10T03:19:08.315Z,3.50
2022-10-10T03:21:38.063Z,3.60
2022-10-10T03:24:06.293Z,3.60
2022-10-10T03:26:34.541Z,3.70
2022-10-10T03:29:03.619Z,3.70
2022-10-10T03:31:32.946Z,3.70
2022-10-10T03:34:01.797Z,3.70
2022-10-10T03:36:31.043Z,3.80
2022-10-10T03:39:00.712Z,3.80
2022-10-10T03:41:28.980Z,3.70
2022-10-10T03:43:57.197Z,3.70
2022-10-10T03:46:25.345Z,3.60
2022-10-10T03:48:53.544Z,3.60
2022-10-10T03:51:21.748Z,3.60
2022-10-10T03:53:50.042Z,3.60
2022-10-10T03:56:19.536Z,3.60
2022-10-10T03:58:47.735Z,3.60
2022-10-10T04:01:15.902Z,3.60
2022-10-10T04:03:46.592Z,3.60
2022-10-10T04:06:18.181Z,3.60
2022-10-10T04:08:46.343Z,3.50
2022-10-10T04:11:14.855Z,3.50
2022-10-10T04:13:44.306Z,3.60
2022-10-10T04:16:12.408Z,3.50
2022-10-10T04:18:40.559Z,3.50
2022-10-10T04:21:08.924Z,3.40
2022-10-10T04:23:37.105Z,3.40
2022-10-10T04:26:05.262Z,3.40
2022-10-10T04:28:33.383Z,3.30
2022-10-10T04:31:03.329Z,3.30
2022-10-10T04:33:31.545Z,3.30
2022-10-10T04:35:59.716Z,3.20
2022-10-10T04:38:27.952Z,3.30
2022-10-10T04:40:56.132Z,3.20
2022-10-10T04:43:24.381Z,3.20
2022-10-10T04:45:52.476Z,3.20
2022-10-10T04:48:21.978Z,3.10
2022-10-10T04:50:53.043Z,3.10
2022-10-10T04:53:21.294Z,3.00
2022-10-10T04:55:49.644Z,2.90
2022-10-10T04:58:18.134Z,2.90
2022-10-10T05:00:46.536Z,2.90
2022-10-10T05:03:14.745Z,2.90
2022-10-10T05:05:45.023Z,3.00
2022-10-10T05:08:13.182Z,3.10
2022-10-10T05:10:41.626Z,3.10
2022-10-10T05:13:12.688Z,3.20
2022-10-10T05:15:41.637Z,3.20
2022-10-10T05:18:10.365Z,3.20
2022-10-10T05:20:38.808Z,3.30
2022-10-10T05:23:08.304Z,3.40
2022-10-10T05:25:36.432Z,3.40
2022-10-10T05:28:04.606Z,3.50
2022-10-10T05:30:32.757Z,3.50
2022-10-10T05:33:00.904Z,3.60
2022-10-10T05:35:28.996Z,3.70
2022-10-10T05:37:57.070Z,3.80
2022-10-10T05:40:26.611Z,3.80
2022-10-10T05:42:54.779Z,3.80
2022-10-10T05:45:22.970Z,3.90
2022-10-10T05:47:51.164Z,3.90
2022-10-10T05:50:30.907Z,3.90
2022-10-10T05:52:59.091Z,3.90
2022-10-10T05:55:28.857Z,4.00
2022-10-10T05:57:57.350Z,4.00
2022-10-10T06:00:25.919Z,4.10
2022-10-10T06:02:54.751Z,4.10
2022-10-10T06:05:23.268Z,4.20
2022-10-10T06:08:05.892Z,4.20
2022-10-10T06:10:42.033Z,4.30
2022-10-10T06:13:10.179Z,4.40
2022-10-10T06:15:38.278Z,4.50
2022-10-10T06:18:08.193Z,4.50
2022-10-10T06:20:37.194Z,4.50
2022-10-10T06:23:06.377Z,4.60
2022-10-10T06:25:40.641Z,4.70
2022-10-10T06:28:11.476Z,4.80
2022-10-10T06:30:43.456Z,4.80
2022-10-10T06:33:12.854Z,4.90
2022-10-10T06:35:42.334Z,5.00
2022-10-10T06:38:10.600Z,5.20
2022-10-10T06:40:39.270Z,5.30
2022-10-10T06:43:11.434Z,5.40
2022-10-10T06:45:42.186Z,5.50
2022-10-10T06:48:13.587Z,5.70
2022-10-10T06:50:41.715Z,5.90
2022-10-10T06:53:10.189Z,6.20
2022-10-10T06:55:38.311Z,6.40
2022-10-10T06:58:07.561Z,6.50
2022-10-10T07:00:35.670Z,6.80
2022-10-10T07:03:05.211Z,7.00
2022-10-10T07:05:33.748Z,7.10
2022-10-10T07:08:01.897Z,7.20
2022-10-10T07:10:30.052Z,7.40
2022-10-10T07:12:58.142Z,7.40
2022-10-10T07:15:26.450Z,7.60
2022-10-10T07:17:59.193Z,7.70
2022-10-10T07:20:28.841Z,7.80
2022-10-10T07:22:57.066Z,7.90
2022-10-10T07:25:25.577Z,8.00
2022-10-10T07:27:53.703Z,8.10
2022-10-10T07:30:21.897Z,8.20
2022-10-10T07:32:50.255Z,8.30
2022-10-10T07:35:18.737Z,8.40
2022-10-10T07:37:48.571Z,8.50
2022-10-10T07:40:16.827Z,8.60
2022-10-10T07:42:44.952Z,8.70
2022-10-10T07:45:13.124Z,8.80
2022-10-10T07:47:41.575Z,8.90
2022-10-10T07:50:11.690Z,9.00
2022-10-10T07:52:40.305Z,9.10
2022-10-10T07:55:10.635Z,9.10
2022-10-10T07:57:39.006Z,9.20
2022-10-10T08:00:10.255Z,9.30
2022-10-10T08:02:41.127Z,9.40
2022-10-10T08:05:10.078Z,9.40
2022-10-10T08:07:38.190Z,9.50
2022-10-10T08:10:08.270Z,9.60
2022-10-10T08:12:37.767Z,9.60
2022-10-10T08:15:07.187Z,9.60
2022-10-10T08:17:35.501Z,9.70
2022-10-10T08:20:03.711Z,9.80
2022-10-10T08:22:32.021Z,9.80
2022-10-10T08:25:00.123Z,9.90
2022-10-10T08:27:28.323Z,10.00
2022-10-10T08:29:57.770Z,10.10
2022-10-10T08:32:26.018Z,10.30
2022-10-10T08:34:54.120Z,10.30
2022-10-10T08:37:24.760Z,10.30
2022-10-10T08:39:56.866Z,10.40
2022-10-10T08:42:30.409Z,10.50
2022-10-10T08:45:05.770Z,10.60
2022-10-10T08:47:40.245Z,10.60
2022-10-10T08:50:16.102Z,10.70
2022-10-10T08:52:49.797Z,10.80
2022-10-10T08:55:21.645Z,10.90
2022-10-10T08:57:53.040Z,11.00
2022-10-10T09:00:24.822Z,11.00
2022-10-10T09:02:56.885Z,11.10
2022-10-10T09:05:37.555Z,11.20
2022-10-10T09:08:25.658Z,11.40
2022-10-10T09:10:58.406Z,11.40
2022-10-10T09:13:34.674Z,11.50
2022-10-10T09:16:08.635Z,11.60
2022-10-10T09:18:55.161Z,11.70
2022-10-10T09:21:26.669Z,11.90
2022-10-10T09:24:00.725Z,12.10
2022-10-10T09:26:32.221Z,12.20
2022-10-10T09:29:06.102Z,12.40
2022-10-10T09:31:39.180Z,12.50
2022-10-10T09:34:16.498Z,12.70
2022-10-10T09:36:46.578Z,12.80
2022-10-10T09:39:22.174Z,13.10
2022-10-10T09:41:58.781Z,13.30
2022-10-10T09:44:27.114Z,13.60
2022-10-10T09:46:56.928Z,13.80
2022-10-10T09:49:25.066Z,13.90
2022-10-10T09:51:53.478Z,14.30
2022-10-10T09:54:22.739Z,14.70
2022-10-10T09:56:54.496Z,15.10
2022-10-10T09:59:40.195Z,15.10
2022-10-10T10:02:16.645Z,15.50
2022-10-10T10:04:44.898Z,15.80
2022-10-10T10:07:27.776Z,16.10
2022-10-10T10:09:59.139Z,16.30
2022-10-10T10:12:30.990Z,16.50
2022-10-10T10:15:03.141Z,16.40
2022-10-10T10:17:32.882Z,16.30
2022-10-10T10:20:01.114Z,16.10
2022-10-10T10:22:35.331Z,16.10
2022-10-10T10:25:31.888Z,16.30
2022-10-10T10:28:22.782Z,16.50
2022-10-10T10:30:54.513Z,16.60
2022-10-10T10:33:37.579Z,16.70
2022-10-10T10:36:14.108Z,16.70
2022-10-10T10:38:47.087Z,16.90
2022-10-10T10:41:23.743Z,17.00
2022-10-10T10:44:25.546Z,17.10
2022-10-10T10:47:07.003Z,17.30
2022-10-10T10:49:46.602Z,17.70
2022-10-10T10:52:31.280Z,17.70
2022-10-10T10:55:12.902Z,17.70
2022-10-10T10:58:22.411Z,18.00
2022-10-10T11:01:22.393Z,18.10
2022-10-10T11:05:16.502Z,18.30
2022-10-10T11:07:17.399Z,18.50
2022-10-10T11:09:50.830Z,18.40
2022-10-10T11:12:42.556Z,18.70
2022-10-10T11:15:16.825Z,18.70
2022-10-10T11:17:49.719Z,18.60
2022-10-10T11:20:25.272Z,18.80
2022-10-10T11:23:04.198Z,18.90
2022-10-10T11:25:42.842Z,19.00
2022-10-10T11:28:16.424Z,18.90
2022-10-10T11:30:52.286Z,19.00
2022-10-10T11:33:23.518Z,19.00
2022-10-10T11:35:56.883Z,19.10
2022-10-10T11:38:32.058Z,19.20
2022-10-10T11:41:03.669Z,19.10
2022-10-10T11:43:40.260Z,18.70
2022-10-10T11:46:19.833Z,18.20
2022-10-10T11:48:56.060Z,18.30
2022-10-10T11:51:40.502Z,18.50
2022-10-10T11:54:22.337Z,18.80
2022-10-10T11:56:53.199Z,19.00
2022-10-10T11:59:27.083Z,19.00
2022-10-10T12:04:34.746Z,19.00
2022-10-10T12:07:07.071Z,18.80
2022-10-10T12:09:41.712Z,18.80
2022-10-10T12:12:14.949Z,18.80
2022-10-10T12:14:48.075Z,18.70
2022-10-10T12:17:22.741Z,18.80
2022-10-10T12:19:52.878Z,18.80
2022-10-10T12:22:25.466Z,19.00
2022-10-10T12:25:22.427Z,19.20
2022-10-10T12:28:05.668Z,19.00
2022-10-10T12:30:34.143Z,18.60
2022-10-10T12:33:02.329Z,18.80
2022-10-10T12:35:41.504Z,18.90
2022-10-10T12:38:28.511Z,19.00
2022-10-10T12:41:14.994Z,19.00
2022-10-10T12:43:47.239Z,18.90
2022-10-10T12:46:31.281Z,19.00
2022-10-10T12:49:06.739Z,18.90
2022-10-10T12:51:37.044Z,18.80
2022-10-10T12:54:08.246Z,18.80
2022-10-10T12:56:42.208Z,18.70
2022-10-10T12:59:21.185Z,18.70
2022-10-10T13:01:54.103Z,18.60
2022-10-10T13:04:22.778Z,18.50
2022-10-10T13:06:55.236Z,18.30
2022-10-10T13:09:28.924Z,18.10
2022-10-10T13:12:02.277Z,17.90
2022-10-10T13:14:39.982Z,17.90
2022-10-10T13:17:25.101Z,17.60
2022-10-10T13:19:54.045Z,17.60
2022-10-10T13:22:23.640Z,17.70
2022-10-10T13:24:52.756Z,17.60
2022-10-10T13:27:24.700Z,17.30
2022-10-10T13:29:53.910Z,17.20
2022-10-10T13:32:25.220Z,17.10
2022-10-10T13:34:56.121Z,17.00
2022-10-10T13:37:25.376Z,16.80
2022-10-10T13:39:54.561Z,16.70
2022-10-10T13:42:33.129Z,16.60
2022-10-10T13:45:03.195Z,16.60
2022-10-10T13:48:19.091Z,16.60
2022-10-10T13:51:03.270Z,16.60
2022-10-10T13:53:52.485Z,16.70
2022-10-10T13:56:28.182Z,16.60
2022-10-10T13:59:06.274Z,16.50
2022-10-10T14:01:40.356Z,16.40
2022-10-10T14:04:23.523Z,16.20
2022-10-10T14:07:00.213Z,16.00
2022-10-10T14:09:32.879Z,15.80
2022-10-10T14:12:03.464Z,15.70
2022-10-10T14:14:41.572Z,15.60
2022-10-10T14:17:11.787Z,15.50
2022-10-10T14:19:40.222Z,15.40
2022-10-10T14:22:08.357Z,15.40
2022-10-10T14:24:36.575Z,15.30
2022-10-10T14:27:14.763Z,15.20
2022-10-10T14:29:44.525Z,15.10
2022-10-10T14:32:14.065Z,15.00
2022-10-10T14:34:42.355Z,15.00
2022-10-10T14:37:18.908Z,14.90
2022-10-10T14:39:48.190Z,14.90
2022-10-10T14:42:18.539Z,14.80
2022-10-10T14:44:48.188Z,14.70
2022-10-10T14:47:18.003Z,14.70
2022-10-10T14:49:46.588Z,14.70
2022-10-10T14:52:14.785Z,14.70
2022-10-10T14:54:42.892Z,14.60
2022-10-10T14:57:13.180Z,14.50
2022-10-10T14:59:49.449Z,14.50
2022-10-10T15:02:23.546Z,14.40
2022-10-10T15:04:52.069Z,14.40
2022-10-10T15:07:20.568Z,14.30
2022-10-10T15:10:26.145Z,14.20
2022-10-10T15:12:41.876Z,14.10
2022-10-10T15:15:11.757Z,13.90
2022-10-10T15:17:41.394Z,13.80
2022-10-10T15:20:12.887Z,13.80
2022-10-10T15:22:41.695Z,13.70
2022-10-10T15:25:10.869Z,13.60
2022-10-10T15:27:39.420Z,13.50
2022-10-10T15:30:08.931Z,13.50
2022-10-10T15:32:40.884Z,13.40
2022-10-10T15:35:13.489Z,13.30
2022-10-10T15:37:41.667Z,13.20
2022-10-10T15:40:11.022Z,13.10
2022-10-10T15:42:39.441Z,13.00
2022-10-10T15:45:08.544Z,12.80
2022-10-10T15:47:46.280Z,12.60
2022-10-10T15:50:14.648Z,12.50
2022-10-10T15:52:42.772Z,12.40
2022-10-10T15:55:11.677Z,12.30
2022-10-10T15:57:39.773Z,12.20
2022-10-10T16:00:09.303Z,12.20
2022-10-10T16:02:41.695Z,12.20
2022-10-10T16:05:10.689Z,12.10
2022-10-10T16:07:47.649Z,12.00
2022-10-10T16:10:16.746Z,11.90
2022-10-10T16:12:44.874Z,11.80
2022-10-10T16:15:13.324Z,11.80
2022-10-10T16:17:42.824Z,11.70
2022-10-10T16:20:11.833Z,11.70
2022-10-10T16:22:40.076Z,11.70
2022-10-10T16:25:24.052Z,11.60
2022-10-10T16:27:52.940Z,11.50
2022-10-10T16:30:22.010Z,11.60
2022-10-10T16:32:51.542Z,11.70
2022-10-10T16:35:19.671Z,11.70
2022-10-10T16:37:47.809Z,11.60
2022-10-10T16:40:15.968Z,11.60
2022-10-10T16:42:44.177Z,11.50
2022-10-10T16:45:12.655Z,11.50
2022-10-10T16:47:40.806Z,11.40
2022-10-10T16:50:11.256Z,11.40
2022-10-10T16:52:40.332Z,11.30
2022-10-10T16:55:11.219Z,11.20
2022-10-10T16:57:39.850Z,11.10
2022-10-10T17:00:10.451Z,11.10
2022-10-10T17:02:42.193Z,11.10
2022-10-10T17:05:12.035Z,11.00
2022-10-10T17:07:40.168Z,10.90
2022-10-10T17:10:09.267Z,10.90
2022-10-10T17:12:37.640Z,10.80
2022-10-10T17:15:06.867Z,10.80
2022-10-10T17:17:35.905Z,10.70
2022-10-10T17:20:05.819Z,10.70
2022-10-10T17:22:35.582Z,10.70
2022-10-10T17:25:03.795Z,10.70
2022-10-10T17:27:32.076Z,10.60
2022-10-10T17:30:00.231Z,10.70
2022-10-10T17:32:28.781Z,10.70
2022-10-10T17:34:56.970Z,10.70
2022-10-10T17:37:25.355Z,10.70
2022-10-10T17:39:54.953Z,10.70
2022-10-10T17:42:23.253Z,10.70
2022-10-10T17:44:57.443Z,10.80
2022-10-10T17:47:26.851Z,10.70
2022-10-10T17:49:56.087Z,10.80
2022-10-10T17:52:28.236Z,10.70
2022-10-10T17:55:01.100Z,10.70
2022-10-10T17:57:29.263Z,10.80
2022-10-10T17:59:57.385Z,10.80
2022-10-10T18:02:25.543Z,10.70
2022-10-10T18:04:53.659Z,10.70
2022-10-10T18:07:22.217Z,10.60
2022-10-10T18:09:51.702Z,10.60
2022-10-10T18:12:21.367Z,10.60
2022-10-10T18:14:49.594Z,10.60
2022-10-10T18:17:17.772Z,10.60
2022-10-10T18:19:45.860Z,10.70
2022-10-10T18:22:14.003Z,10.70
2022-10-10T18:24:42.180Z,10.80
2022-10-10T18:27:10.393Z,10.80
2022-10-10T18:29:39.870Z,10.80
2022-10-10T18:32:08.072Z,10.90
2022-10-10T18:34:36.336Z,10.90
2022-10-10T18:37:04.796Z,10.90
2022-10-10T18:39:33.925Z,10.90
2022-10-10T18:42:02.102Z,10.90
2022-10-10T18:44:30.595Z,10.90
2022-10-10T18:47:00.051Z,10.90
2022-10-10T18:49:28.502Z,10.90
2022-10-10T18:51:56.733Z,10.90
2022-10-10T18:54:28.191Z,10.80
2022-10-10T18:56:56.315Z,10.80
2022-10-10T18:59:24.400Z,10.80
2022-10-10T19:01:52.850Z,10.70
2022-10-10T19:04:22.757Z,10.70
2022-10-10T19:06:56.844Z,10.70
2022-10-10T19:09:26.803Z,10.60
2022-10-10T19:11:55.164Z,10.60
2022-10-10T19:14:23.607Z,10.60
2022-10-10T19:16:51.866Z,10.50
2022-10-10T19:19:21.929Z,10.50
2022-10-10T19:21:51.051Z,10.50
2022-10-10T19:24:21.369Z,10.50
2022-10-10T19:26:55.817Z,10.50
2022-10-10T19:29:24.934Z,10.50
2022-10-10T19:31:53.352Z,10.50
2022-10-10T19:34:23.271Z,10.50
2022-10-10T19:36:51.407Z,10.50
2022-10-10T19:39:19.532Z,10.50
2022-10-10T19:41:48.075Z,10.50
2022-10-10T19:44:16.196Z,10.40
2022-10-10T19:46:44.329Z,10.40
2022-10-10T19:49:12.806Z,10.40
2022-10-10T19:51:42.348Z,10.30
2022-10-10T19:54:10.564Z,10.30
2022-10-10T19:56:38.839Z,10.30
2022-10-10T19:59:07.044Z,10.30
2022-10-10T20:01:35.407Z,10.30
2022-10-10T20:04:03.713Z,10.30
2022-10-10T20:06:31.874Z,10.30
2022-10-10T20:09:01.362Z,10.30
2022-10-10T20:11:29.529Z,10.30
2022-10-10T20:13:58.348Z,10.40
2022-10-10T20:16:27.765Z,10.40
2022-10-10T20:18:57.956Z,10.40
2022-10-10T20:21:33.423Z,10.40
2022-10-10T20:24:05.993Z,10.40
2022-10-10T20:26:34.935Z,10.40
2022-10-10T20:29:03.743Z,10.40
2022-10-10T20:31:35.818Z,10.40
2022-10-10T20:34:07.965Z,10.40
2022-10-10T20:36:37.122Z,10.40
2022-10-10T20:39:08.920Z,10.40
2022-10-10T20:41:38.664Z,10.40
2022-10-10T20:44:08.714Z,10.40
2022-10-10T20:46:38.567Z,10.40
2022-10-10T20:49:09.278Z,10.40
2022-10-10T20:51:37.551Z,10.30
2022-10-10T20:54:08.630Z,10.40
2022-10-10T20:56:37.226Z,10.40
2022-10-10T20:59:06.836Z,10.40
2022-10-10T21:01:35.777Z,10.40
2022-10-10T21:04:04.079Z,10.40
2022-10-10T21:06:34.467Z,10.40
2022-10-10T21:09:05.034Z,10.40
2022-10-10T21:11:35.056Z,10.40
2022-10-10T21:14:03.893Z,10.30
2022-10-10T21:16:34.386Z,10.30
2022-10-10T21:19:03.086Z,10.30
2022-10-10T21:21:32.698Z,10.30
2022-10-10T21:24:01.430Z,10.30
2022-10-10T21:26:31.418Z,10.30
2022-10-10T21:29:01.523Z,10.30
2022-10-10T21:31:32.428Z,10.30
2022-10-10T21:34:02.085Z,10.30
2022-10-10T21:36:30.638Z,10.40
2022-10-10T21:38:59.078Z,10.40
2022-10-10T21:41:28.956Z,10.40
2022-10-10T21:43:59.765Z,10.40
2022-10-10T21:46:35.572Z,10.40
2022-10-10T21:49:08.099Z,10.40
2022-10-10T21:51:38.446Z,10.40
2022-10-10T21:54:07.695Z,10.50
2022-10-10T21:56:35.957Z,10.50
2022-10-10T21:59:04.575Z,10.50
2022-10-10T22:01:34.385Z,10.60
2022-10-10T22:04:03.252Z,10.50
2022-10-10T22:06:32.165Z,10.50
2022-10-10T22:09:02.310Z,10.50
2022-10-10T22:11:32.458Z,10.50
2022-10-10T22:14:02.470Z,10.50
2022-10-10T22:16:33.289Z,10.50
2022-10-10T22:19:01.823Z,10.50
2022-10-10T22:21:32.419Z,10.50
2022-10-10T22:24:01.760Z,10.50
2022-10-10T22:26:30.663Z,10.40
2022-10-10T22:28:59.395Z,10.50
2022-10-10T22:31:29.110Z,10.50
2022-10-10T22:33:59.135Z,10.50
2022-10-10T22:36:27.524Z,10.50
2022-10-10T22:38:55.643Z,10.50
2022-10-10T22:41:23.754Z,10.50
2022-10-10T22:43:51.972Z,10.40
2022-10-10T22:46:20.164Z,10.40
2022-10-10T22:48:48.320Z,10.40
2022-10-10T22:51:19.197Z,10.30
2022-10-10T22:53:48.769Z,10.20
2022-10-10T22:56:19.953Z,10.20
2022-10-10T22:58:48.649Z,10.10
2022-10-10T23:01:18.840Z,10.00
2022-10-10T23:03:47.122Z,10.00
2022-10-10T23:06:17.070Z,10.00
2022-10-10T23:08:45.176Z,9.90
2022-10-10T23:11:13.293Z,9.90
2022-10-10T23:13:41.702Z,9.80
2022-10-10T23:16:10.915Z,9.80
2022-10-10T23:18:39.240Z,9.80
2022-10-10T23:21:07.561Z,9.80
2022-10-10T23:23:37.111Z,9.70
2022-10-10T23:26:09.131Z,9.70
2022-10-10T23:28:39.379Z,9.60
2022-10-10T23:31:09.556Z,9.60
2022-10-10T23:33:38.476Z,9.50
2022-10-10T23:36:09.349Z,9.50
2022-10-10T23:38:39.309Z,9.40
2022-10-10T23:41:07.863Z,9.40
2022-10-10T23:43:36.009Z,9.40
2022-10-10T23:46:04.762Z,9.30
2022-10-10T23:48:33.092Z,9.30
2022-10-10T23:51:01.174Z,9.30
2022-10-10T23:53:29.607Z,9.20
2022-10-10T23:55:59.194Z,9.20
2022-10-10T23:58:27.443Z,9.20
